createdAt,value
2022-11-20T00:00:03.896Z,76.97
2022-11-20T00:01:03.997Z,76.87
2022-11-20T00:02:04.127Z,76.87
2022-11-20T00:03:04.147Z,76.76
2022-11-20T00:04:04.222Z,76.76
2022-11-20T00:05:04.319Z,76.76
2022-11-20T00:06:04.430Z,76.87
2022-11-20T00:07:04.503Z,76.76
2022-11-20T00:08:04.571Z,76.76
2022-11-20T00:09:04.669Z,76.76
2022-11-20T00:10:04.777Z,76.76
2022-11-20T00:11:04.861Z,76.76
2022-11-20T00:12:04.914Z,76.76
2022-11-20T00:13:05.004Z,76.76
2022-11-20T00:14:05.098Z,76.76
2022-11-20T00:15:05.187Z,76.76
2022-11-20T00:16:05.289Z,76.76
2022-11-20T00:17:05.397Z,76.76
2022-11-20T00:18:05.424Z,76.76
2022-11-20T00:19:05.500Z,76.87
2022-11-20T00:20:05.596Z,76.87
2022-11-20T00:21:05.696Z,76.97
2022-11-20T00:22:05.763Z,76.97
2022-11-20T00:23:05.835Z,76.97
2022-11-20T00:24:05.908Z,76.97
2022-11-20T00:25:06.030Z,76.97
2022-11-20T00:26:06.054Z,76.97
2022-11-20T00:27:06.160Z,77.08
2022-11-20T00:28:06.216Z,77.08
2022-11-20T00:29:06.326Z,77.08
2022-11-20T00:30:06.453Z,77.08
2022-11-20T00:31:06.552Z,77.08
2022-11-20T00:32:06.615Z,77.08
2022-11-20T00:33:06.689Z,77.18
2022-11-20T00:34:06.734Z,77.14
2022-11-20T00:35:06.816Z,77.14
2022-11-20T00:36:06.947Z,77.14
2022-11-20T00:37:07.001Z,77.04
2022-11-20T00:38:07.089Z,77.04
2022-11-20T00:39:07.277Z,77.04
2022-11-20T00:40:07.287Z,77.04
2022-11-20T00:41:07.380Z,77.04
2022-11-20T00:42:07.451Z,77.14
2022-11-20T00:43:07.551Z,77.14
2022-11-20T00:44:07.646Z,77.14
2022-11-20T00:45:07.735Z,77.14
2022-11-20T00:46:07.879Z,77.14
2022-11-20T00:47:07.964Z,77.14
2022-11-20T00:48:07.994Z,77.14
2022-11-20T00:49:08.081Z,77.14
2022-11-20T00:50:08.164Z,77.14
2022-11-20T00:51:08.278Z,77.14
2022-11-20T00:52:08.325Z,77.14
2022-11-20T00:53:08.401Z,77.14
2022-11-20T00:54:08.475Z,77.14
2022-11-20T00:55:08.569Z,77.14
2022-11-20T00:56:08.680Z,77.14
2022-11-20T00:57:08.791Z,77.04
2022-11-20T00:58:13.077Z,77.04
2022-11-20T00:59:08.935Z,76.93
2022-11-20T01:00:08.993Z,76.93
2022-11-20T01:01:09.207Z,76.93
2022-11-20T01:02:09.160Z,76.93
2022-11-20T01:03:09.269Z,76.93
2022-11-20T01:04:09.337Z,76.93
2022-11-20T01:05:09.427Z,76.93
2022-11-20T01:06:09.511Z,77.04
2022-11-20T01:07:09.657Z,77.04
2022-11-20T01:08:09.661Z,77.04
2022-11-20T01:09:09.733Z,76.93
2022-11-20T01:10:09.816Z,76.93
2022-11-20T01:11:09.920Z,76.83
2022-11-20T01:12:09.991Z,76.83
2022-11-20T01:13:10.065Z,76.93
2022-11-20T01:14:10.148Z,76.93
2022-11-20T01:15:10.240Z,76.93
2022-11-20T01:16:10.365Z,77.04
2022-11-20T01:17:10.459Z,77.04
2022-11-20T01:18:10.501Z,77.04
2022-11-20T01:19:10.600Z,77.04
2022-11-20T01:20:10.690Z,77.14
2022-11-20T01:21:10.818Z,77.14
2022-11-20T01:22:10.876Z,77.14
2022-11-20T01:23:10.910Z,77.14
2022-11-20T01:24:10.997Z,77.14
2022-11-20T01:25:11.084Z,77.14
2022-11-20T01:26:11.202Z,77.14
2022-11-20T01:27:11.275Z,77.14
2022-11-20T01:28:11.328Z,77.14
2022-11-20T01:29:11.365Z,77.14
2022-11-20T01:30:11.464Z,77.14
2022-11-20T01:31:11.518Z,77.14
2022-11-20T01:32:11.605Z,77.14
2022-11-20T01:33:11.683Z,77.04
2022-11-20T01:34:11.755Z,77.04
2022-11-20T01:35:11.890Z,77.04
2022-11-20T01:36:11.979Z,77.04
2022-11-20T01:37:12.036Z,77.04
2022-11-20T01:38:12.154Z,77.14
2022-11-20T01:39:12.185Z,77.14
2022-11-20T01:40:12.272Z,77.14
2022-11-20T01:41:12.375Z,77.14
2022-11-20T01:42:12.500Z,77.14
2022-11-20T01:43:12.525Z,77.25
2022-11-20T01:44:12.638Z,77.25
2022-11-20T01:45:12.727Z,77.25
2022-11-20T01:46:12.827Z,77.35
2022-11-20T01:47:12.890Z,77.35
2022-11-20T01:48:12.982Z,77.35
2022-11-20T01:49:13.054Z,77.35
2022-11-20T01:50:13.194Z,77.35
2022-11-20T01:51:13.256Z,77.45
2022-11-20T01:52:13.334Z,77.45
2022-11-20T01:53:13.441Z,77.45
2022-11-20T01:54:13.541Z,77.45
2022-11-20T01:55:13.617Z,77.45
2022-11-20T01:56:13.665Z,77.35
2022-11-20T01:57:13.750Z,77.35
2022-11-20T01:58:13.831Z,77.35
2022-11-20T01:59:13.910Z,77.35
2022-11-20T02:00:14.010Z,77.35
2022-11-20T02:01:14.202Z,77.25
2022-11-20T02:02:14.181Z,77.14
2022-11-20T02:03:14.289Z,77.14
2022-11-20T02:04:14.400Z,77.14
2022-11-20T02:05:14.450Z,77.18
2022-11-20T02:06:14.544Z,77.28
2022-11-20T02:07:14.585Z,77.18
2022-11-20T02:08:14.779Z,77.18
2022-11-20T02:09:14.734Z,77.28
2022-11-20T02:10:14.829Z,77.28
2022-11-20T02:11:14.938Z,77.28
2022-11-20T02:12:15.021Z,77.38
2022-11-20T02:13:15.087Z,77.38
2022-11-20T02:14:15.142Z,77.38
2022-11-20T02:15:15.225Z,77.38
2022-11-20T02:16:15.340Z,77.38
2022-11-20T02:17:15.374Z,77.38
2022-11-20T02:18:15.487Z,77.38
2022-11-20T02:19:15.528Z,77.28
2022-11-20T02:20:15.621Z,76.87
2022-11-20T02:21:24.806Z,76.76
2022-11-20T02:22:15.832Z,76.76
2022-11-20T02:23:15.850Z,76.76
2022-11-20T02:24:15.950Z,76.76
2022-11-20T02:25:16.020Z,76.80
2022-11-20T02:26:16.129Z,76.80
2022-11-20T02:27:16.218Z,76.70
2022-11-20T02:28:16.328Z,76.80
2022-11-20T02:29:16.416Z,76.59
2022-11-20T02:30:16.491Z,76.59
2022-11-20T02:31:16.531Z,76.70
2022-11-20T02:32:16.651Z,76.80
2022-11-20T02:33:16.686Z,76.90
2022-11-20T02:34:16.790Z,76.90
2022-11-20T02:35:16.847Z,76.80
2022-11-20T02:36:16.931Z,76.70
2022-11-20T02:37:17.017Z,76.80
2022-11-20T02:38:17.096Z,76.94
2022-11-20T02:39:17.188Z,76.94
2022-11-20T02:40:17.291Z,76.84
2022-11-20T02:41:17.369Z,76.84
2022-11-20T02:42:17.521Z,76.73
2022-11-20T02:43:17.516Z,76.63
2022-11-20T02:44:17.590Z,76.53
2022-11-20T02:45:17.683Z,76.53
2022-11-20T02:46:17.816Z,76.42
2022-11-20T02:47:17.872Z,76.53
2022-11-20T02:48:17.978Z,76.63
2022-11-20T02:49:18.264Z,76.73
2022-11-20T02:50:18.106Z,76.73
2022-11-20T02:51:18.170Z,76.73
2022-11-20T02:52:18.318Z,76.84
2022-11-20T02:53:18.364Z,76.84
2022-11-20T02:54:18.472Z,76.98
2022-11-20T02:55:18.592Z,77.08
2022-11-20T02:56:18.609Z,77.08
2022-11-20T02:57:18.750Z,77.08
2022-11-20T02:58:18.904Z,77.18
2022-11-20T02:59:19.121Z,77.18
2022-11-20T03:00:18.988Z,77.18
2022-11-20T03:01:19.137Z,77.28
2022-11-20T03:02:19.175Z,77.39
2022-11-20T03:03:19.205Z,77.39
2022-11-20T03:04:19.288Z,77.39
2022-11-20T03:05:19.386Z,77.39
2022-11-20T03:06:19.470Z,77.39
2022-11-20T03:07:19.652Z,77.49
2022-11-20T03:08:19.675Z,77.49
2022-11-20T03:11:16.823Z,77.59
2022-11-20T03:12:17.896Z,77.59
2022-11-20T03:13:17.955Z,77.70
2022-11-20T03:14:18.174Z,77.80
2022-11-20T03:15:18.148Z,77.80
2022-11-20T03:16:18.228Z,77.91
2022-11-20T03:17:18.319Z,77.91
2022-11-20T03:18:18.419Z,78.01
2022-11-20T03:19:18.852Z,78.01
2022-11-20T03:20:18.585Z,78.01
2022-11-20T03:21:18.658Z,78.11
2022-11-20T03:22:18.737Z,78.11
2022-11-20T03:23:18.822Z,78.08
2022-11-20T03:24:18.909Z,78.08
2022-11-20T03:25:19.008Z,78.08
2022-11-20T03:26:19.087Z,78.08
2022-11-20T03:27:19.173Z,78.08
2022-11-20T03:28:19.259Z,78.08
2022-11-20T03:29:19.706Z,78.18
2022-11-20T03:30:19.426Z,78.08
2022-11-20T03:31:19.511Z,78.08
2022-11-20T03:32:19.604Z,78.08
2022-11-20T03:33:19.709Z,78.08
2022-11-20T03:34:19.797Z,78.08
2022-11-20T03:35:19.840Z,78.08
2022-11-20T03:36:19.916Z,78.08
2022-11-20T03:37:20.001Z,78.08
2022-11-20T03:38:20.123Z,78.04
2022-11-20T03:39:20.470Z,77.94
2022-11-20T03:40:20.237Z,77.97
2022-11-20T03:41:20.315Z,77.94
2022-11-20T03:42:20.400Z,77.94
2022-11-20T03:43:20.502Z,77.94
2022-11-20T03:44:20.574Z,77.94
2022-11-20T03:45:20.640Z,77.94
2022-11-20T03:46:20.735Z,78.04
2022-11-20T03:47:20.767Z,78.04
2022-11-20T03:48:20.862Z,77.94
2022-11-20T03:49:21.233Z,77.94
2022-11-20T03:50:21.025Z,77.94
2022-11-20T03:51:21.124Z,78.04
2022-11-20T03:52:21.199Z,78.04
2022-11-20T03:53:21.301Z,78.04
2022-11-20T03:54:21.365Z,78.04
2022-11-20T03:55:21.451Z,78.14
2022-11-20T03:56:21.534Z,78.14
2022-11-20T03:57:21.602Z,78.14
2022-11-20T03:58:21.686Z,78.24
2022-11-20T03:59:21.952Z,78.24
2022-11-20T04:00:21.835Z,78.24
2022-11-20T04:01:21.981Z,78.34
2022-11-20T04:02:22.016Z,78.34
2022-11-20T04:03:22.098Z,78.31
2022-11-20T04:04:22.177Z,78.31
2022-11-20T04:05:22.257Z,78.31
2022-11-20T04:06:22.338Z,78.31
2022-11-20T04:07:22.455Z,78.21
2022-11-20T04:08:22.526Z,78.11
2022-11-20T04:09:23.088Z,78.11
2022-11-20T04:10:22.667Z,78.00
2022-11-20T04:11:22.749Z,78.00
2022-11-20T04:12:22.810Z,77.90
2022-11-20T04:13:22.898Z,77.80
2022-11-20T04:14:22.981Z,77.69
2022-11-20T04:15:23.065Z,77.59
2022-11-20T04:16:23.148Z,76.97
2022-11-20T04:17:23.201Z,76.66
2022-11-20T04:18:23.354Z,76.46
2022-11-20T04:19:23.672Z,76.35
2022-11-20T04:20:23.504Z,76.29
2022-11-20T04:21:23.544Z,76.08
2022-11-20T04:22:23.624Z,75.98
2022-11-20T04:23:28.537Z,75.98
2022-11-20T04:24:23.807Z,75.87
2022-11-20T04:25:23.891Z,75.67
2022-11-20T04:26:23.963Z,75.70
2022-11-20T04:27:24.020Z,75.60
2022-11-20T04:28:24.115Z,75.70
2022-11-20T04:29:24.318Z,75.70
2022-11-20T04:30:24.317Z,75.81
2022-11-20T04:31:24.358Z,75.91
2022-11-20T04:32:24.444Z,75.95
2022-11-20T04:33:24.540Z,76.04
2022-11-20T04:34:24.626Z,75.95
2022-11-20T04:35:24.713Z,75.95
2022-11-20T04:36:24.774Z,75.95
2022-11-20T04:37:24.857Z,75.84
2022-11-20T04:38:24.989Z,75.84
2022-11-20T04:39:25.122Z,75.84
2022-11-20T04:40:25.157Z,75.95
2022-11-20T04:41:25.212Z,75.98
2022-11-20T04:42:25.282Z,75.98
2022-11-20T04:43:25.387Z,75.98
2022-11-20T04:44:25.476Z,76.08
2022-11-20T04:45:25.557Z,76.08
2022-11-20T04:46:25.658Z,76.18
2022-11-20T04:47:25.690Z,76.43
2022-11-20T04:48:25.841Z,76.53
2022-11-20T04:49:25.924Z,76.64
2022-11-20T04:50:25.960Z,76.73
2022-11-20T04:51:26.022Z,76.84
2022-11-20T04:52:26.087Z,76.94
2022-11-20T04:53:26.186Z,77.04
2022-11-20T04:54:26.263Z,77.15
2022-11-20T04:55:26.333Z,77.25
2022-11-20T04:56:26.402Z,77.36
2022-11-20T04:57:26.477Z,77.36
2022-11-20T04:58:26.574Z,77.46
2022-11-20T04:59:26.611Z,77.46
2022-11-20T05:00:26.706Z,77.56
2022-11-20T05:01:26.926Z,77.56
2022-11-20T05:02:26.865Z,77.67
2022-11-20T05:03:26.971Z,77.63
2022-11-20T05:04:27.053Z,77.73
2022-11-20T05:05:27.144Z,77.73
2022-11-20T05:06:27.208Z,77.73
2022-11-20T05:07:27.348Z,77.73
2022-11-20T05:08:27.398Z,77.73
2022-11-20T05:09:27.471Z,77.73
2022-11-20T05:10:27.539Z,77.84
2022-11-20T05:11:27.618Z,77.84
2022-11-20T05:12:27.711Z,77.84
2022-11-20T05:13:27.807Z,77.94
2022-11-20T05:14:27.899Z,77.94
2022-11-20T05:15:27.915Z,77.94
2022-11-20T05:16:28.024Z,77.94
2022-11-20T05:17:28.155Z,78.05
2022-11-20T05:18:28.234Z,78.05
2022-11-20T05:19:28.273Z,78.14
2022-11-20T05:20:28.358Z,78.14
2022-11-20T05:21:28.441Z,78.11
2022-11-20T05:22:28.541Z,78.11
2022-11-20T05:23:28.599Z,78.11
2022-11-20T05:24:28.672Z,78.01
2022-11-20T05:25:28.748Z,77.91
2022-11-20T05:26:28.920Z,78.01
2022-11-20T05:27:28.926Z,78.01
2022-11-20T05:28:29.030Z,78.01
2022-11-20T05:29:29.059Z,78.01
2022-11-20T05:30:29.166Z,78.01
2022-11-20T05:31:29.229Z,78.01
2022-11-20T05:32:29.318Z,77.91
2022-11-20T05:33:29.426Z,77.91
2022-11-20T05:34:29.494Z,77.91
2022-11-20T05:35:29.573Z,77.70
2022-11-20T05:36:29.679Z,77.59
2022-11-20T05:37:29.745Z,77.59
2022-11-20T05:38:29.886Z,77.70
2022-11-20T05:39:29.931Z,77.70
2022-11-20T05:40:30.012Z,77.70
2022-11-20T05:41:30.081Z,77.59
2022-11-20T05:42:30.168Z,77.59
2022-11-20T05:43:30.266Z,77.59
2022-11-20T05:44:30.346Z,77.59
2022-11-20T05:45:30.454Z,77.70
2022-11-20T05:46:30.526Z,77.80
2022-11-20T05:47:30.597Z,77.80
2022-11-20T05:48:30.752Z,77.80
2022-11-20T05:49:30.784Z,77.80
2022-11-20T05:50:30.892Z,77.80
2022-11-20T05:51:30.964Z,77.70
2022-11-20T05:52:31.054Z,77.70
2022-11-20T05:53:31.158Z,77.59
2022-11-20T05:54:31.197Z,77.59
2022-11-20T05:55:31.272Z,77.59
2022-11-20T05:56:31.425Z,77.59
2022-11-20T05:57:31.456Z,77.49
2022-11-20T05:58:31.570Z,77.49
2022-11-20T05:59:31.633Z,77.49
2022-11-20T06:00:31.718Z,77.49
2022-11-20T06:01:31.817Z,77.49
2022-11-20T06:02:32.001Z,77.39
2022-11-20T06:03:31.973Z,77.49
2022-11-20T06:04:32.055Z,77.59
2022-11-20T06:05:32.130Z,77.59
2022-11-20T06:06:32.205Z,77.59
2022-11-20T06:07:32.282Z,77.59
2022-11-20T06:08:32.384Z,77.70
2022-11-20T06:09:32.453Z,77.49
2022-11-20T06:10:32.540Z,77.49
2022-11-20T06:11:32.618Z,77.59
2022-11-20T06:12:32.742Z,77.39
2022-11-20T06:13:32.819Z,77.39
2022-11-20T06:14:32.852Z,77.08
2022-11-20T06:15:32.937Z,77.08
2022-11-20T06:16:33.029Z,77.08
2022-11-20T06:17:33.131Z,76.87
2022-11-20T06:18:33.249Z,76.98
2022-11-20T06:19:33.306Z,77.08
2022-11-20T06:20:36.689Z,77.18
2022-11-20T06:21:33.476Z,77.28
2022-11-20T06:22:33.552Z,77.28
2022-11-20T06:23:33.639Z,77.28
2022-11-20T06:24:33.751Z,77.39
2022-11-20T06:25:33.782Z,77.28
2022-11-20T06:26:33.864Z,77.08
2022-11-20T06:27:33.950Z,76.87
2022-11-20T06:28:34.051Z,76.98
2022-11-20T06:29:34.359Z,76.87
2022-11-20T06:30:34.225Z,76.56
2022-11-20T06:31:34.303Z,76.46
2022-11-20T06:32:34.476Z,76.35
2022-11-20T06:33:34.461Z,76.35
2022-11-20T06:34:34.545Z,76.46
2022-11-20T06:35:34.629Z,76.35
2022-11-20T06:36:34.729Z,76.25
2022-11-20T06:37:34.803Z,76.15
2022-11-20T06:38:34.896Z,76.15
2022-11-20T06:39:34.929Z,76.15
2022-11-20T06:40:35.032Z,76.25
2022-11-20T06:41:35.140Z,76.35
2022-11-20T06:42:35.181Z,76.25
2022-11-20T06:43:35.269Z,76.35
2022-11-20T06:44:35.437Z,76.46
2022-11-20T06:45:35.433Z,76.56
2022-11-20T06:46:35.541Z,76.46
2022-11-20T06:47:35.626Z,76.46
2022-11-20T06:48:35.734Z,76.56
2022-11-20T06:49:35.772Z,76.56
2022-11-20T06:50:35.876Z,76.35
2022-11-20T06:51:35.906Z,76.35
2022-11-20T06:52:39.552Z,76.35
2022-11-20T06:53:36.098Z,76.35
2022-11-20T06:54:36.156Z,76.50
2022-11-20T06:55:36.253Z,76.46
2022-11-20T06:56:36.364Z,76.56
2022-11-20T06:57:36.413Z,76.46
2022-11-20T06:58:36.535Z,76.35
2022-11-20T06:59:36.608Z,76.15
2022-11-20T07:00:36.803Z,76.15
2022-11-20T07:01:36.766Z,76.25
2022-11-20T07:02:36.855Z,76.15
2022-11-20T07:03:37.000Z,76.15
2022-11-20T07:04:37.068Z,76.15
2022-11-20T07:05:37.172Z,76.15
2022-11-20T07:06:37.225Z,76.15
2022-11-20T07:07:37.415Z,76.25
2022-11-20T07:08:37.429Z,76.35
2022-11-20T07:09:37.486Z,76.46
2022-11-20T07:10:37.568Z,76.46
2022-11-20T07:11:37.674Z,76.46
2022-11-20T07:12:37.774Z,76.56
2022-11-20T07:13:38.001Z,76.46
2022-11-20T07:14:37.963Z,76.46
2022-11-20T07:15:38.022Z,76.46
2022-11-20T07:16:38.172Z,76.56
2022-11-20T07:17:38.199Z,76.56
2022-11-20T07:18:38.338Z,76.56
2022-11-20T07:19:38.389Z,76.56
2022-11-20T07:20:38.424Z,76.56
2022-11-20T07:21:38.504Z,76.56
2022-11-20T07:22:38.625Z,76.56
2022-11-20T07:23:38.697Z,76.46
2022-11-20T07:24:41.885Z,76.35
2022-11-20T07:25:38.932Z,76.25
2022-11-20T07:26:38.993Z,76.35
2022-11-20T07:27:39.024Z,76.46
2022-11-20T07:28:39.112Z,76.46
2022-11-20T07:29:39.203Z,76.56
2022-11-20T07:30:39.264Z,76.56
2022-11-20T07:31:39.357Z,76.56
2022-11-20T07:32:39.440Z,76.67
2022-11-20T07:33:39.558Z,76.67
2022-11-20T07:34:39.634Z,76.77
2022-11-20T07:35:39.688Z,76.67
2022-11-20T07:36:39.761Z,76.67
2022-11-20T07:37:39.799Z,76.56
2022-11-20T07:38:39.873Z,76.56
2022-11-20T07:39:40.046Z,76.46
2022-11-20T07:40:40.066Z,76.35
2022-11-20T07:41:40.125Z,76.46
2022-11-20T07:42:40.185Z,76.35
2022-11-20T07:43:41.626Z,76.15
2022-11-20T07:44:40.375Z,76.04
2022-11-20T07:45:40.478Z,76.04
2022-11-20T07:46:40.582Z,76.04
2022-11-20T07:47:40.637Z,75.84
2022-11-20T07:48:40.713Z,75.63
2022-11-20T07:49:40.825Z,75.74
2022-11-20T07:50:40.912Z,75.84
2022-11-20T07:51:40.963Z,75.95
2022-11-20T07:52:41.033Z,76.04
2022-11-20T07:53:41.148Z,75.95
2022-11-20T07:54:41.210Z,75.84
2022-11-20T07:55:41.317Z,75.74
2022-11-20T07:56:41.430Z,75.84
2022-11-20T07:57:41.449Z,75.95
2022-11-20T07:58:41.514Z,76.04
2022-11-20T07:59:41.630Z,76.04
2022-11-20T08:00:42.606Z,76.15
2022-11-20T08:01:41.792Z,76.15
2022-11-20T08:02:41.881Z,76.15
2022-11-20T08:03:41.980Z,76.25
2022-11-20T08:04:42.110Z,76.25
2022-11-20T08:05:42.179Z,76.04
2022-11-20T08:06:42.229Z,75.95
2022-11-20T08:07:42.369Z,76.04
2022-11-20T08:08:43.164Z,76.04
2022-11-20T08:09:42.536Z,76.04
2022-11-20T08:10:42.571Z,76.04
2022-11-20T08:11:42.695Z,75.95
2022-11-20T08:12:42.772Z,75.43
2022-11-20T08:13:42.817Z,75.53
2022-11-20T08:14:42.940Z,75.74
2022-11-20T08:15:42.984Z,75.84
2022-11-20T08:16:43.067Z,75.95
2022-11-20T08:17:56.779Z,76.04
2022-11-20T08:18:43.248Z,76.15
2022-11-20T08:19:43.364Z,76.25
2022-11-20T08:20:43.474Z,76.15
2022-11-20T08:21:43.495Z,75.95
2022-11-20T08:22:43.573Z,75.63
2022-11-20T08:23:43.647Z,75.43
2022-11-20T08:24:43.773Z,75.53
2022-11-20T08:25:43.834Z,75.63
2022-11-20T08:26:43.864Z,75.63
2022-11-20T08:27:43.963Z,75.43
2022-11-20T08:28:44.005Z,75.32
2022-11-20T08:29:44.117Z,75.22
2022-11-20T08:30:44.150Z,75.22
2022-11-20T08:31:44.260Z,75.01
2022-11-20T08:32:44.288Z,75.12
2022-11-20T08:33:44.406Z,75.22
2022-11-20T08:34:44.476Z,75.12
2022-11-20T08:35:44.538Z,75.22
2022-11-20T08:36:44.579Z,75.12
2022-11-20T08:37:44.692Z,75.01
2022-11-20T08:38:44.748Z,75.22
2022-11-20T08:39:44.899Z,75.12
2022-11-20T08:40:44.971Z,75.12
2022-11-20T08:41:45.021Z,75.12
2022-11-20T08:42:45.101Z,75.12
2022-11-20T08:43:45.161Z,75.22
2022-11-20T08:44:45.279Z,75.43
2022-11-20T08:45:45.355Z,75.49
2022-11-20T08:46:45.418Z,75.70
2022-11-20T08:47:45.463Z,75.81
2022-11-20T08:48:46.446Z,75.81
2022-11-20T08:49:45.641Z,75.91
2022-11-20T08:50:45.691Z,75.91
2022-11-20T08:51:45.819Z,76.01
2022-11-20T08:52:45.864Z,76.12
2022-11-20T08:53:45.964Z,76.01
2022-11-20T08:54:46.081Z,76.12
2022-11-20T08:55:46.142Z,76.12
2022-11-20T08:56:46.225Z,76.21
2022-11-20T08:57:50.556Z,76.32
2022-11-20T08:59:17.888Z,76.32
2022-11-20T09:00:46.588Z,76.42
2022-11-20T09:01:46.694Z,76.42
2022-11-20T09:02:46.764Z,76.42
2022-11-20T09:03:46.845Z,76.42
2022-11-20T09:04:46.924Z,76.21
2022-11-20T09:05:46.998Z,76.12
2022-11-20T09:06:47.044Z,76.12
2022-11-20T09:07:47.242Z,76.01
2022-11-20T09:08:47.224Z,76.01
2022-11-20T09:09:58.743Z,76.12
2022-11-20T09:10:47.335Z,76.12
2022-11-20T09:11:47.416Z,76.12
2022-11-20T09:12:47.515Z,76.12
2022-11-20T09:13:47.623Z,76.12
2022-11-20T09:14:52.213Z,76.21
2022-11-20T09:15:47.784Z,76.32
2022-11-20T09:16:47.861Z,76.29
2022-11-20T09:17:47.940Z,76.39
2022-11-20T09:18:57.596Z,76.29
2022-11-20T09:19:48.085Z,75.98
2022-11-20T09:20:48.138Z,75.98
2022-11-20T09:21:48.236Z,75.98
2022-11-20T09:22:48.307Z,75.98
2022-11-20T09:23:48.374Z,75.98
2022-11-20T09:24:48.457Z,75.98
2022-11-20T09:25:48.511Z,75.77
2022-11-20T09:26:48.592Z,75.36
2022-11-20T09:27:48.692Z,75.15
2022-11-20T09:28:48.755Z,75.05
2022-11-20T09:29:48.866Z,74.63
2022-11-20T09:30:48.862Z,74.63
2022-11-20T09:31:48.952Z,74.74
2022-11-20T09:32:49.070Z,74.84
2022-11-20T09:33:49.123Z,74.33
2022-11-20T09:34:49.219Z,73.81
2022-11-20T09:35:49.267Z,74.02
2022-11-20T09:36:49.359Z,74.12
2022-11-20T09:37:49.450Z,74.33
2022-11-20T09:38:49.501Z,74.33
2022-11-20T09:39:49.661Z,74.43
2022-11-20T09:40:49.707Z,74.22
2022-11-20T09:41:49.759Z,74.12
2022-11-20T09:42:49.849Z,74.12
2022-11-20T09:43:49.942Z,74.12
2022-11-20T09:44:50.103Z,74.12
2022-11-20T09:45:50.096Z,74.12
2022-11-20T09:46:50.154Z,73.50
2022-11-20T09:47:50.258Z,73.81
2022-11-20T09:48:50.347Z,73.91
2022-11-20T09:49:50.456Z,73.40
2022-11-20T09:50:50.525Z,72.88
2022-11-20T09:51:50.616Z,72.78
2022-11-20T09:52:50.716Z,72.99
2022-11-20T09:53:50.842Z,73.09
2022-11-20T09:54:50.901Z,72.47
2022-11-20T09:55:50.972Z,72.47
2022-11-20T09:56:51.015Z,72.58
2022-11-20T09:57:51.104Z,72.78
2022-11-20T09:58:51.212Z,72.78
2022-11-20T09:59:51.287Z,72.67
2022-11-20T10:00:51.388Z,72.99
2022-11-20T10:01:51.415Z,73.30
2022-11-20T10:02:51.492Z,73.40
2022-11-20T10:03:51.573Z,73.50
2022-11-20T10:04:51.686Z,73.40
2022-11-20T10:05:51.758Z,73.60
2022-11-20T10:06:59.732Z,73.40
2022-11-20T10:07:51.981Z,73.71
2022-11-20T10:08:52.065Z,73.71
2022-11-20T10:09:52.174Z,73.68
2022-11-20T10:10:53.818Z,73.36
2022-11-20T10:11:52.279Z,73.47
2022-11-20T10:12:52.354Z,73.57
2022-11-20T10:13:52.399Z,73.05
2022-11-20T10:14:52.479Z,70.58
2022-11-20T10:15:52.554Z,70.79
2022-11-20T10:16:52.677Z,71.82
2022-11-20T10:17:52.871Z,72.54
2022-11-20T10:18:52.850Z,72.03
2022-11-20T10:19:52.973Z,71.72
2022-11-20T10:20:52.994Z,71.82
2022-11-20T10:21:53.045Z,71.82
2022-11-20T10:22:53.221Z,71.30
2022-11-20T10:23:53.310Z,71.20
2022-11-20T10:24:53.328Z,71.51
2022-11-20T10:25:53.416Z,71.51
2022-11-20T10:26:53.512Z,71.61
2022-11-20T10:27:53.606Z,71.82
2022-11-20T10:28:58.733Z,71.72
2022-11-20T10:29:53.772Z,71.51
2022-11-20T10:30:53.824Z,71.51
2022-11-20T10:31:53.928Z,71.51
2022-11-20T10:32:54.004Z,71.82
2022-11-20T10:34:54.176Z,71.51
2022-11-20T10:35:54.225Z,71.92
2022-11-20T10:36:54.258Z,72.13
2022-11-20T10:37:54.352Z,71.92
2022-11-20T10:38:54.450Z,72.03
2022-11-20T10:39:54.560Z,72.03
2022-11-20T10:40:54.617Z,72.13
2022-11-20T10:41:54.741Z,72.33
2022-11-20T10:42:54.774Z,72.33
2022-11-20T10:43:54.916Z,72.44
2022-11-20T10:44:56.650Z,72.44
2022-11-20T10:45:55.047Z,72.33
2022-11-20T10:46:55.085Z,72.23
2022-11-20T10:47:55.244Z,71.89
2022-11-20T10:48:55.234Z,71.89
2022-11-20T10:49:55.380Z,71.89
2022-11-20T10:50:55.417Z,71.99
2022-11-20T10:51:55.492Z,72.09
2022-11-20T10:52:55.569Z,72.20
2022-11-20T10:53:55.665Z,72.20
2022-11-20T10:54:55.755Z,70.45
2022-11-20T10:55:55.803Z,70.86
2022-11-20T10:56:55.903Z,71.27
2022-11-20T10:57:56.019Z,71.48
2022-11-20T10:58:56.038Z,71.69
2022-11-20T10:59:56.178Z,71.99
2022-11-20T11:00:56.232Z,72.20
2022-11-20T11:01:56.328Z,72.09
2022-11-20T11:02:56.357Z,72.30
2022-11-20T11:03:56.460Z,71.99
2022-11-20T11:04:56.545Z,71.58
2022-11-20T11:05:56.645Z,71.17
2022-11-20T11:06:56.694Z,71.27
2022-11-20T11:07:56.848Z,71.06
2022-11-20T11:08:56.962Z,71.17
2022-11-20T11:09:57.000Z,71.37
2022-11-20T11:10:57.062Z,71.17
2022-11-20T11:11:57.185Z,71.17
2022-11-20T11:12:57.177Z,71.27
2022-11-20T11:13:57.310Z,71.34
2022-11-20T11:14:57.414Z,71.44
2022-11-20T11:15:57.394Z,70.72
2022-11-20T11:16:57.481Z,71.03
2022-11-20T11:17:57.560Z,71.14
2022-11-20T11:18:57.683Z,70.42
2022-11-20T11:19:57.713Z,70.42
2022-11-20T11:20:57.811Z,70.72
2022-11-20T11:21:57.926Z,71.03
2022-11-20T11:22:57.995Z,71.34
2022-11-20T11:24:13.539Z,70.52
2022-11-20T11:24:58.127Z,70.42
2022-11-20T11:25:58.275Z,70.62
2022-11-20T11:26:58.294Z,70.62
2022-11-20T11:27:58.399Z,70.48
2022-11-20T11:28:58.583Z,70.79
2022-11-20T11:29:58.529Z,70.79
2022-11-20T11:30:58.714Z,70.90
2022-11-20T11:31:58.707Z,71.00
2022-11-20T11:32:58.778Z,70.79
2022-11-20T11:33:58.863Z,70.48
2022-11-20T11:34:58.938Z,70.45
2022-11-20T11:35:59.087Z,70.35
2022-11-20T11:36:59.123Z,70.25
2022-11-20T11:37:59.201Z,70.56
2022-11-20T11:38:59.269Z,70.66
2022-11-20T11:40:22.761Z,70.97
2022-11-20T11:40:59.451Z,70.35
2022-11-20T11:41:59.502Z,69.94
2022-11-20T11:42:59.616Z,69.53
2022-11-20T11:43:59.730Z,69.53
2022-11-20T11:44:59.810Z,69.49
2022-11-20T11:45:59.904Z,69.49
2022-11-20T11:46:59.968Z,69.09
2022-11-20T11:48:00.038Z,69.09
2022-11-20T11:49:00.165Z,69.39
2022-11-20T11:50:00.271Z,68.98
2022-11-20T11:51:00.368Z,69.18
2022-11-20T11:52:00.395Z,69.49
2022-11-20T11:53:00.464Z,69.18
2022-11-20T11:54:00.538Z,68.77
2022-11-20T11:55:00.622Z,68.37
2022-11-20T11:56:00.729Z,67.95
2022-11-20T11:57:00.795Z,68.46
2022-11-20T11:58:00.876Z,68.57
2022-11-20T11:59:00.970Z,68.46
2022-11-20T12:00:01.011Z,68.57
2022-11-20T12:01:01.115Z,68.46
2022-11-20T12:02:01.202Z,68.16
2022-11-20T12:03:01.218Z,67.23
2022-11-20T12:04:01.308Z,67.44
2022-11-20T12:05:01.386Z,67.23
2022-11-20T12:06:01.501Z,67.23
2022-11-20T12:07:06.113Z,67.23
2022-11-20T12:08:01.735Z,67.44
2022-11-20T12:09:01.767Z,67.13
2022-11-20T12:10:01.838Z,67.44
2022-11-20T12:11:01.958Z,67.85
2022-11-20T12:12:01.976Z,68.37
2022-11-20T12:13:02.103Z,68.37
2022-11-20T12:14:02.124Z,68.26
2022-11-20T12:15:02.240Z,68.57
2022-11-20T12:16:02.331Z,68.67
2022-11-20T12:17:02.453Z,68.88
2022-11-20T12:18:02.470Z,68.80
2022-11-20T12:19:02.540Z,68.40
2022-11-20T12:20:02.671Z,68.29
2022-11-20T12:21:02.741Z,68.40
2022-11-20T12:22:05.159Z,68.40
2022-11-20T12:23:02.893Z,68.40
2022-11-20T12:24:02.930Z,68.50
2022-11-20T12:25:03.058Z,68.70
2022-11-20T12:26:03.140Z,68.08
2022-11-20T12:27:03.182Z,68.08
2022-11-20T12:28:03.319Z,67.98
2022-11-20T12:29:03.400Z,68.08
2022-11-20T12:30:03.440Z,68.29
2022-11-20T12:31:03.555Z,68.60
2022-11-20T12:32:03.664Z,68.40
2022-11-20T12:33:03.736Z,67.98
2022-11-20T12:34:03.821Z,68.08
2022-11-20T12:35:08.568Z,68.08
2022-11-20T12:36:03.946Z,68.08
2022-11-20T12:37:04.021Z,67.68
2022-11-20T12:38:04.131Z,67.57
2022-11-20T12:39:04.312Z,67.68
2022-11-20T12:40:04.286Z,67.78
2022-11-20T12:41:04.467Z,68.08
2022-11-20T12:42:04.502Z,67.98
2022-11-20T12:43:04.605Z,68.19
2022-11-20T12:44:04.669Z,68.50
2022-11-20T12:45:04.781Z,67.47
2022-11-20T12:46:04.887Z,67.47
2022-11-20T12:47:04.965Z,67.36
2022-11-20T12:48:05.038Z,67.68
2022-11-20T12:49:05.198Z,68.08
2022-11-20T12:50:05.229Z,68.26
2022-11-20T12:51:15.025Z,68.05
2022-11-20T12:52:05.357Z,68.37
2022-11-20T12:53:05.454Z,67.75
2022-11-20T12:54:05.467Z,67.75
2022-11-20T12:55:05.616Z,67.65
2022-11-20T12:56:05.675Z,67.23
2022-11-20T12:57:05.722Z,67.23